Time;durP1;ratioP1;P1;durP2;ratioP2;P2;SDS_P1;SDS_P2;PMS_P1;PMS_P2;Temp;Humidity;BMP_temperature;BMP_pressure;BME280_temperature;BME280_humidity;BME280_pressure;Samples;Min_cycle;Max_cycle;Signal;HPM_P1;HPM_P2
2022/10/01 00:00:15;;;;;;;;;;;;;;;;;;5032320;28;19905;-77
2022/10/01 00:02:41;;;;;;;;;;;;;;;;;;5032227;28;19931;-76
2022/10/01 00:05:09;;;;;;;;;;;;;;;;;;5033588;28;19913;-75
2022/10/01 00:07:35;;;;;;;;;;;;;;;;;;5033862;28;19905;-75
2022/10/01 00:10:01;;;;;;;;;;;;;;;;;;5033481;28;20019;-75
2022/10/01 00:12:27;;;;;;;;;;;;;;;;;;5033471;28;19909;-77
2022/10/01 00:14:53;;;;;;;;;;;;;;;;;;5032126;28;19952;-77
2022/10/01 00:17:19;;;;;;;;;;;;;;;;;;5033437;28;19912;-78
2022/10/01 00:19:44;;;;;;;;;;;;;;;;;;5033744;28;19914;-77
2022/10/01 00:22:10;;;;;;;;;;;;;;;;;;5033613;28;19991;-76
2022/10/01 00:24:36;;;;;;;;;;;;;;;;;;5033438;28;20081;-75
2022/10/01 00:27:02;;;;;;;;;;;;;;;;;;5034391;28;19912;-76
2022/10/01 00:29:28;;;;;;;;;;;;;;;;;;5033606;28;19905;-76
2022/10/01 00:31:54;;;;;;;;;;;;;;;;;;5032888;28;20373;-78
2022/10/01 00:34:20;;;;;;;;;;;;;;;;;;5033299;28;19912;-75
2022/10/01 00:36:46;;;;;;;;;;;;;;;;;;5033850;28;19912;-77
2022/10/01 00:39:12;;;;;;;;;;;;;;;;;;5033559;28;19905;-76
2022/10/01 00:41:38;;;;;;;;;;;;;;;;;;5033249;28;20000;-75
2022/10/01 00:44:04;;;;;;;;;;;;;;;;;;5033433;28;19956;-77
2022/10/01 00:46:30;;;;;;;;;;;;;;;;;;5031896;28;19972;-76
2022/10/01 00:48:57;;;;;;;;;;;;;;;;;;5033173;28;19952;-78
2022/10/01 00:51:22;;;;;;;;;;;;;;;;;;5033172;28;20361;-76
2022/10/01 00:53:48;;;;;;;;;;;;;;;;;;5033651;28;19905;-77
2022/10/01 00:56:14;;;;;;;;;;;;;;;;;;5033088;28;19912;-76
2022/10/01 00:58:40;;;;;;;;;;;;;;;;;;5033606;28;19905;-77
2022/10/01 01:01:06;;;;;;;;;;;;;;;;;;5033355;28;19912;-76
2022/10/01 01:03:32;;;;;;;;;;;;;;;;;;5033546;28;19909;-76
2022/10/01 01:05:58;;;;;;;;;;;;;;;;;;5034171;28;20262;-77
2022/10/01 01:08:24;;;;;;;;;;;;;;;;;;5036565;28;19959;-78
2022/10/01 01:10:50;;;;;;;;;;;;;;;;;;5035183;28;19932;-77
2022/10/01 01:13:17;;;;;;;;;;;;;;;;;;5037073;28;19971;-77
2022/10/01 01:15:43;;;;;;;;;;;;;;;;;;5036437;28;19992;-78
2022/10/01 01:18:09;;;;;;;;;;;;;;;;;;5036908;28;20361;-76
2022/10/01 01:20:36;;;;;;;;;;;;;;;;;;5035040;28;19909;-77
2022/10/01 01:23:03;;;;;;;;;;;;;;;;;;5036789;28;19909;-75
2022/10/01 01:25:29;;;;;;;;;;;;;;;;;;5034710;28;19955;-76
2022/10/01 01:27:55;;;;;;;;;;;;;;;;;;5035356;28;19995;-75
2022/10/01 01:30:21;;;;;;;;;;;;;;;;;;5036388;28;19963;-77
2022/10/01 01:32:47;;;;;;;;;;;;;;;;;;5036405;28;19909;-76
2022/10/01 01:35:12;;;;;;;;;;;;;;;;;;5036072;28;20357;-77
2022/10/01 01:37:38;;;;;;;;;;;;;;;;;;5036548;28;19905;-78
2022/10/01 01:40:04;;;;;;;;;;;;;;;;;;5035991;28;19905;-76
2022/10/01 01:42:30;;;;;;;;;;;;;;;;;;5036120;28;19909;-77
2022/10/01 01:44:57;;;;;;;;;;;;;;;;;;5035856;28;19963;-75
2022/10/01 01:47:23;;;;;;;;;;;;;;;;;;5036222;28;19905;-77
2022/10/01 01:49:49;;;;;;;;;;;;;;;;;;5035837;28;19912;-76
2022/10/01 01:52:16;;;;;;;;;;;;;;;;;;5034493;28;19905;-75
2022/10/01 01:54:43;;;;;;;;;;;;;;;;;;5036015;28;19911;-77
2022/10/01 01:57:09;;;;;;;;;;;;;;;;;;5035684;28;19954;-77
2022/10/01 01:59:35;;;;;;;;;;;;;;;;;;5034299;28;20416;-78
2022/10/01 02:02:01;;;;;;;;;;;;;;;;;;5035783;28;19905;-76
2022/10/01 02:04:27;;;;;;;;;;;;;;;;;;5034232;28;20305;-76
2022/10/01 02:06:53;;;;;;;;;;;;;;;;;;5035487;28;19912;-77
2022/10/01 02:09:19;;;;;;;;;;;;;;;;;;5035704;28;19905;-76
2022/10/01 02:11:45;;;;;;;;;;;;;;;;;;5034112;28;19905;-75
2022/10/01 02:14:11;;;;;;;;;;;;;;;;;;5034123;28;20353;-76
2022/10/01 02:16:37;;;;;;;;;;;;;;;;;;5034846;28;19909;-77
2022/10/01 02:19:03;;;;;;;;;;;;;;;;;;5034862;28;19972;-76
2022/10/01 02:21:29;;;;;;;;;;;;;;;;;;5035185;28;19912;-78
2022/10/01 02:23:56;;;;;;;;;;;;;;;;;;5035101;28;20371;-76
2022/10/01 02:26:22;;;;;;;;;;;;;;;;;;5033893;28;19905;-77
2022/10/01 02:28:48;;;;;;;;;;;;;;;;;;5035533;28;19912;-77
2022/10/01 02:31:14;;;;;;;;;;;;;;;;;;5033856;28;19916;-77
2022/10/01 02:33:40;;;;;;;;;;;;;;;;;;5035090;28;19913;-76
2022/10/01 02:36:06;;;;;;;;;;;;;;;;;;5035015;28;19906;-78
2022/10/01 02:38:32;;;;;;;;;;;;;;;;;;5035118;28;19905;-77
2022/10/01 02:40:59;;;;;;;;;;;;;;;;;;5034823;28;19905;-77
2022/10/01 02:43:25;;;;;;;;;;;;;;;;;;5033475;28;20304;-77
2022/10/01 02:45:51;;;;;;;;;;;;;;;;;;5034765;28;20008;-78
2022/10/01 02:48:17;;;;;;;;;;;;;;;;;;5034920;28;19909;-77
2022/10/01 02:50:43;;;;;;;;;;;;;;;;;;5034616;28;19905;-75
2022/10/01 02:53:09;;;;;;;;;;;;;;;;;;5034570;28;19955;-78
2022/10/01 02:55:35;;;;;;;;;;;;;;;;;;5035092;28;20353;-76
2022/10/01 02:58:00;;;;;;;;;;;;;;;;;;5034753;28;19940;-77
2022/10/01 03:00:27;;;;;;;;;;;;;;;;;;5034998;28;19927;-78
2022/10/01 03:02:53;;;;;;;;;;;;;;;;;;5034631;28;19908;-78
2022/10/01 03:05:19;;;;;;;;;;;;;;;;;;5034890;28;19954;-77
2022/10/01 03:07:45;;;;;;;;;;;;;;;;;;5034346;28;19947;-77
2022/10/01 03:10:11;;;;;;;;;;;;;;;;;;5034563;28;20323;-75
2022/10/01 03:12:39;;;;;;;;;;;;;;;;;;5034252;28;19909;-78
2022/10/01 03:15:05;;;;;;;;;;;;;;;;;;5034527;28;19987;-77
2022/10/01 03:17:31;;;;;;;;;;;;;;;;;;5032930;28;19908;-78
2022/10/01 03:19:57;;;;;;;;;;;;;;;;;;5034143;28;20262;-76
2022/10/01 03:22:23;;;;;;;;;;;;;;;;;;5032696;28;19909;-76
2022/10/01 03:24:49;;;;;;;;;;;;;;;;;;5034024;28;19913;-78
2022/10/01 03:27:16;;;;;;;;;;;;;;;;;;5034355;28;19959;-76
2022/10/01 03:29:42;;;;;;;;;;;;;;;;;;5034016;28;19905;-76
2022/10/01 03:32:08;;;;;;;;;;;;;;;;;;5033946;28;19955;-77
2022/10/01 03:34:34;;;;;;;;;;;;;;;;;;5033944;28;19928;-76
2022/10/01 03:36:59;;;;;;;;;;;;;;;;;;5033910;28;19912;-78
2022/10/01 03:39:26;;;;;;;;;;;;;;;;;;5034140;28;19905;-77
2022/10/01 03:41:52;;;;;;;;;;;;;;;;;;5034148;28;19912;-75
2022/10/01 03:44:17;;;;;;;;;;;;;;;;;;5034275;28;19913;-77
2022/10/01 03:46:43;;;;;;;;;;;;;;;;;;5033732;28;19928;-78
2022/10/01 03:49:09;;;;;;;;;;;;;;;;;;5034297;28;19944;-77
2022/10/01 03:51:36;;;;;;;;;;;;;;;;;;5033712;28;19905;-77
2022/10/01 03:54:02;;;;;;;;;;;;;;;;;;5033994;28;19905;-77
2022/10/01 03:56:27;;;;;;;;;;;;;;;;;;5033934;28;20350;-78
2022/10/01 03:58:53;;;;;;;;;;;;;;;;;;5034207;28;19944;-77
2022/10/01 04:01:19;;;;;;;;;;;;;;;;;;5033550;28;19909;-78
2022/10/01 04:03:46;;;;;;;;;;;;;;;;;;5033537;28;19913;-75
2022/10/01 04:06:11;;;;;;;;;;;;;;;;;;5034187;28;19936;-78
2022/10/01 04:08:37;;;;;;;;;;;;;;;;;;5033859;28;19909;-78
2022/10/01 04:11:04;;;;;;;;;;;;;;;;;;5034120;28;20000;-78
2022/10/01 04:13:30;;;;;;;;;;;;;;;;;;5033481;28;19955;-77
2022/10/01 04:15:56;;;;;;;;;;;;;;;;;;5033496;28;20300;-78
2022/10/01 04:18:22;;;;;;;;;;;;;;;;;;5033734;28;19905;-77
2022/10/01 04:20:48;;;;;;;;;;;;;;;;;;5033428;28;19905;-77
2022/10/01 04:23:14;;;;;;;;;;;;;;;;;;5033353;28;20043;-76
2022/10/01 04:25:39;;;;;;;;;;;;;;;;;;5033645;28;19905;-74
2022/10/01 04:28:05;;;;;;;;;;;;;;;;;;5034039;28;19905;-78
2022/10/01 04:30:31;;;;;;;;;;;;;;;;;;5033508;28;19921;-78
2022/10/01 04:32:57;;;;;;;;;;;;;;;;;;5033310;28;20388;-77
2022/10/01 04:35:23;;;;;;;;;;;;;;;;;;5033306;28;19951;-77
2022/10/01 04:37:49;;;;;;;;;;;;;;;;;;5033872;28;20264;-78
2022/10/01 04:40:15;;;;;;;;;;;;;;;;;;5033662;28;19905;-76
2022/10/01 04:42:42;;;;;;;;;;;;;;;;;;5035694;28;19952;-78
2022/10/01 04:45:08;;;;;;;;;;;;;;;;;;5035712;28;19912;-78
2022/10/01 04:47:34;;;;;;;;;;;;;;;;;;5037236;28;19905;-77
2022/10/01 04:50:00;;;;;;;;;;;;;;;;;;5036920;28;19911;-76
2022/10/01 04:52:25;;;;;;;;;;;;;;;;;;5037433;28;20353;-76
2022/10/01 04:54:51;;;;;;;;;;;;;;;;;;5036821;28;19905;-77
2022/10/01 04:57:20;;;;;;;;;;;;;;;;;;5037038;28;19932;-76
2022/10/01 04:59:46;;;;;;;;;;;;;;;;;;5035511;28;19905;-75
2022/10/01 05:02:12;;;;;;;;;;;;;;;;;;5036906;28;19911;-76
2022/10/01 05:04:38;;;;;;;;;;;;;;;;;;5036883;28;19905;-77
2022/10/01 05:07:04;;;;;;;;;;;;;;;;;;5036616;28;19919;-76
2022/10/01 05:09:29;;;;;;;;;;;;;;;;;;5036845;28;19992;-77
2022/10/01 05:11:55;;;;;;;;;;;;;;;;;;5036524;28;19905;-76
2022/10/01 05:14:21;;;;;;;;;;;;;;;;;;5036767;28;19951;-77
2022/10/01 05:16:47;;;;;;;;;;;;;;;;;;5036405;28;19909;-75
2022/10/01 05:19:13;;;;;;;;;;;;;;;;;;5036394;28;19905;-76
2022/10/01 05:21:39;;;;;;;;;;;;;;;;;;5036609;28;19905;-76
2022/10/01 05:24:05;;;;;;;;;;;;;;;;;;5036194;28;19908;-77
2022/10/01 05:26:31;;;;;;;;;;;;;;;;;;5036773;28;19987;-77
2022/10/01 05:28:58;;;;;;;;;;;;;;;;;;5035388;28;19905;-78
2022/10/01 05:31:23;;;;;;;;;;;;;;;;;;5036037;28;19917;-77
2022/10/01 05:33:49;;;;;;;;;;;;;;;;;;5036427;28;19911;-76
2022/10/01 05:36:15;;;;;;;;;;;;;;;;;;5036040;28;20269;-77
2022/10/01 05:38:41;;;;;;;;;;;;;;;;;;5034728;28;19905;-77
2022/10/01 05:41:07;;;;;;;;;;;;;;;;;;5035963;28;19909;-76
2022/10/01 05:43:33;;;;;;;;;;;;;;;;;;5034553;28;19955;-75
2022/10/01 05:45:59;;;;;;;;;;;;;;;;;;5036235;28;19959;-78
2022/10/01 05:48:25;;;;;;;;;;;;;;;;;;5035803;28;19905;-76
2022/10/01 05:50:51;;;;;;;;;;;;;;;;;;5035797;28;19955;-77
2022/10/01 05:53:17;;;;;;;;;;;;;;;;;;5034227;28;20340;-77
2022/10/01 05:55:43;;;;;;;;;;;;;;;;;;5034497;28;19905;-77
2022/10/01 05:58:09;;;;;;;;;;;;;;;;;;5035750;28;20426;-75
2022/10/01 06:00:35;;;;;;;;;;;;;;;;;;5035645;28;19905;-74
2022/10/01 06:03:01;;;;;;;;;;;;;;;;;;5036093;28;19978;-76
2022/10/01 06:05:27;;;;;;;;;;;;;;;;;;5035516;28;20431;-75
2022/10/01 06:07:53;;;;;;;;;;;;;;;;;;5036038;28;20035;-76
2022/10/01 06:10:19;;;;;;;;;;;;;;;;;;5035440;28;19931;-78
2022/10/01 06:12:45;;;;;;;;;;;;;;;;;;5034097;28;20380;-77
2022/10/01 06:15:11;;;;;;;;;;;;;;;;;;5035629;28;19913;-77
2022/10/01 06:17:42;;;;;;;;;;;;;;;;;;5035320;28;20070;-75
2022/10/01 06:20:10;;;;;;;;;;;;;;;;;;5035617;28;20305;-77
2022/10/01 06:22:36;;;;;;;;;;;;;;;;;;5035140;28;19963;-75
2022/10/01 06:25:02;;;;;;;;;;;;;;;;;;5035134;28;19905;-76
2022/10/01 06:27:28;;;;;;;;;;;;;;;;;;5035418;28;20005;-78
2022/10/01 06:29:54;;;;;;;;;;;;;;;;;;5034127;28;19905;-75
2022/10/01 06:32:20;;;;;;;;;;;;;;;;;;5035644;28;20345;-76
2022/10/01 06:34:46;;;;;;;;;;;;;;;;;;5034958;28;19912;-75
2022/10/01 06:37:11;;;;;;;;;;;;;;;;;;5034948;28;19994;-76
2022/10/01 06:39:37;;;;;;;;;;;;;;;;;;5035115;28;19909;-77
2022/10/01 06:42:03;;;;;;;;;;;;;;;;;;5034837;28;20399;-76
2022/10/01 06:44:29;;;;;;;;;;;;;;;;;;5034717;28;19909;-75
2022/10/01 06:46:55;;;;;;;;;;;;;;;;;;5035265;28;20251;-76
2022/10/01 06:49:21;;;;;;;;;;;;;;;;;;5034675;28;20246;-76
2022/10/01 06:54:32;;;;;;;;;;;;;;;;;;5034433;28;19916;-76
2022/10/01 06:56:58;;;;;;;;;;;;;;;;;;5034567;28;20289;-77
2022/10/01 06:59:23;;;;;;;;;;;;;;;;;;5033188;28;19912;-75
2022/10/01 07:01:49;;;;;;;;;;;;;;;;;;5034727;28;19905;-77
2022/10/01 07:04:15;;;;;;;;;;;;;;;;;;5033722;28;19995;-76
2022/10/01 07:06:41;;;;;;;;;;;;;;;;;;5034362;28;19944;-76
2022/10/01 07:09:07;;;;;;;;;;;;;;;;;;5034735;28;19909;-75
2022/10/01 07:11:33;;;;;;;;;;;;;;;;;;5034906;28;19905;-77
2022/10/01 07:14:00;;;;;;;;;;;;;;;;;;5034552;28;19973;-77
2022/10/01 07:16:26;;;;;;;;;;;;;;;;;;5034243;28;19927;-78
2022/10/01 07:18:52;;;;;;;;;;;;;;;;;;5034441;28;19930;-78
2022/10/01 07:21:18;;;;;;;;;;;;;;;;;;5034102;28;19909;-78
2022/10/01 07:23:43;;;;;;;;;;;;;;;;;;5034286;28;19909;-75
2022/10/01 07:26:09;;;;;;;;;;;;;;;;;;5034049;28;19905;-77
2022/10/01 07:28:35;;;;;;;;;;;;;;;;;;5034486;28;19913;-78
2022/10/01 07:31:01;;;;;;;;;;;;;;;;;;5032542;28;19921;-77
2022/10/01 07:33:27;;;;;;;;;;;;;;;;;;5033982;28;19909;-77
2022/10/01 07:35:53;;;;;;;;;;;;;;;;;;5034453;28;20012;-77
2022/10/01 07:38:19;;;;;;;;;;;;;;;;;;5033844;28;19905;-77
2022/10/01 07:40:45;;;;;;;;;;;;;;;;;;5034125;28;20008;-76
2022/10/01 07:43:13;;;;;;;;;;;;;;;;;;5034075;28;19913;-77
2022/10/01 07:45:39;;;;;;;;;;;;;;;;;;5034387;28;19905;-78
2022/10/01 07:48:06;;;;;;;;;;;;;;;;;;5034070;28;19951;-77
2022/10/01 07:50:32;;;;;;;;;;;;;;;;;;5034312;28;19958;-78
2022/10/01 07:52:58;;;;;;;;;;;;;;;;;;5033987;28;20007;-75
2022/10/01 07:55:25;;;;;;;;;;;;;;;;;;5033983;28;19905;-78
2022/10/01 07:57:51;;;;;;;;;;;;;;;;;;5033709;28;19999;-78
2022/10/01 08:00:18;;;;;;;;;;;;;;;;;;5032378;28;19913;-76
2022/10/01 08:02:44;;;;;;;;;;;;;;;;;;5033886;28;19913;-78
2022/10/01 08:05:19;;;;;;;;;;;;;;;;;;5033583;28;19913;-77
2022/10/01 08:07:45;;;;;;;;;;;;;;;;;;5034156;28;20405;-77
2022/10/01 08:10:11;;;;;;;;;;;;;;;;;;5033613;28;20423;-79
2022/10/01 08:12:37;;;;;;;;;;;;;;;;;;5033554;28;20078;-77
2022/10/01 08:15:05;;;;;;;;;;;;;;;;;;5034935;28;19955;-77
2022/10/01 08:17:31;;;;;;;;;;;;;;;;;;5038111;28;20357;-79
2022/10/01 08:19:57;;;;;;;;;;;;;;;;;;5037467;28;19911;-78
2022/10/01 08:22:22;;;;;;;;;;;;;;;;;;5037959;28;19905;-76
2022/10/01 08:24:48;;;;;;;;;;;;;;;;;;5037676;28;20004;-76
2022/10/01 08:27:14;;;;;;;;;;;;;;;;;;5037246;28;20361;-76
2022/10/01 08:29:42;;;;;;;;;;;;;;;;;;5037680;28;19909;-76
2022/10/01 08:32:07;;;;;;;;;;;;;;;;;;5037603;28;19909;-78
2022/10/01 08:34:34;;;;;;;;;;;;;;;;;;5035982;28;19912;-78
2022/10/01 08:36:59;;;;;;;;;;;;;;;;;;5035937;28;20252;-78
2022/10/01 08:39:25;;;;;;;;;;;;;;;;;;5036992;28;19912;-78
2022/10/01 08:41:51;;;;;;;;;;;;;;;;;;5037234;28;19905;-79
2022/10/01 08:44:18;;;;;;;;;;;;;;;;;;5035689;28;19913;-76
2022/10/01 08:46:44;;;;;;;;;;;;;;;;;;5037585;28;19952;-78
2022/10/01 08:49:10;;;;;;;;;;;;;;;;;;5037281;28;19912;-78
2022/10/01 08:51:36;;;;;;;;;;;;;;;;;;5036939;28;19905;-75
2022/10/01 08:54:02;;;;;;;;;;;;;;;;;;5037449;28;19920;-75
2022/10/01 08:56:28;;;;;;;;;;;;;;;;;;5037054;28;19952;-81
2022/10/01 08:58:53;;;;;;;;;;;;;;;;;;5036812;28;20358;-78
2022/10/01 09:01:21;;;;;;;;;;;;;;;;;;5036960;28;19905;-78
2022/10/01 09:03:46;;;;;;;;;;;;;;;;;;5036621;28;19952;-79
2022/10/01 09:06:12;;;;;;;;;;;;;;;;;;5036610;28;19928;-77
2022/10/01 09:08:47;;;;;;;;;;;;;;;;;;5036600;28;19992;-76
2022/10/01 09:11:13;;;;;;;;;;;;;;;;;;5036863;28;20396;-80
2022/10/01 09:13:39;;;;;;;;;;;;;;;;;;5036491;28;19905;-77
2022/10/01 09:16:05;;;;;;;;;;;;;;;;;;5035086;28;19912;-77
2022/10/01 09:18:31;;;;;;;;;;;;;;;;;;5036438;28;19959;-75
2022/10/01 09:20:57;;;;;;;;;;;;;;;;;;5036268;28;19963;-76
2022/10/01 09:23:23;;;;;;;;;;;;;;;;;;5036203;28;19909;-75
2022/10/01 09:25:52;;;;;;;;;;;;;;;;;;5036231;28;19989;-76
2022/10/01 09:28:18;;;;;;;;;;;;;;;;;;5034657;28;19928;-74
2022/10/01 09:30:45;;;;;;;;;;;;;;;;;;5036450;28;20365;-77
2022/10/01 09:33:11;;;;;;;;;;;;;;;;;;5035882;28;19905;-78
2022/10/01 09:35:37;;;;;;;;;;;;;;;;;;5036149;28;20286;-75
2022/10/01 09:38:02;;;;;;;;;;;;;;;;;;5036404;28;19913;-76
2022/10/01 09:40:28;;;;;;;;;;;;;;;;;;5036124;28;19905;-77
2022/10/01 09:42:54;;;;;;;;;;;;;;;;;;5035968;28;19948;-78
2022/10/01 09:45:20;;;;;;;;;;;;;;;;;;5034624;28;19911;-76
2022/10/01 09:47:46;;;;;;;;;;;;;;;;;;5036349;28;19905;-79
2022/10/01 09:50:12;;;;;;;;;;;;;;;;;;5036094;28;19912;-76
2022/10/01 09:52:38;;;;;;;;;;;;;;;;;;5035769;28;19912;-78
2022/10/01 09:55:04;;;;;;;;;;;;;;;;;;5035690;28;19912;-81
2022/10/01 09:57:30;;;;;;;;;;;;;;;;;;5035993;28;19928;-76
2022/10/01 09:59:56;;;;;;;;;;;;;;;;;;5035673;28;20361;-75
2022/10/01 10:02:22;;;;;;;;;;;;;;;;;;5036082;28;19912;-76
2022/10/01 10:04:47;;;;;;;;;;;;;;;;;;5034309;28;19955;-76
2022/10/01 10:07:13;;;;;;;;;;;;;;;;;;5035524;28;19912;-76
2022/10/01 10:09:40;;;;;;;;;;;;;;;;;;5035594;28;19905;-75
2022/10/01 10:12:09;;;;;;;;;;;;;;;;;;5034689;28;20276;-76
2022/10/01 10:14:35;;;;;;;;;;;;;;;;;;5032649;28;20384;-76
2022/10/01 10:17:03;;;;;;;;;;;;;;;;;;5034988;28;19905;-75
2022/10/01 10:19:29;;;;;;;;;;;;;;;;;;5035150;28;20333;-76
2022/10/01 10:21:57;;;;;;;;;;;;;;;;;;5033999;28;19911;-76
2022/10/01 10:24:25;;;;;;;;;;;;;;;;;;5033828;28;19909;-75
2022/10/01 10:26:51;;;;;;;;;;;;;;;;;;5035391;28;19912;-76
2022/10/01 10:29:17;;;;;;;;;;;;;;;;;;5035613;28;19905;-76
2022/10/01 10:31:42;;;;;;;;;;;;;;;;;;5034752;28;19967;-76
2022/10/01 10:34:09;;;;;;;;;;;;;;;;;;5035199;28;19931;-76
2022/10/01 10:36:36;;;;;;;;;;;;;;;;;;5035247;28;19963;-76
2022/10/01 10:39:02;;;;;;;;;;;;;;;;;;5034187;28;20246;-76
2022/10/01 10:41:28;;;;;;;;;;;;;;;;;;5034863;28;19916;-76
2022/10/01 10:43:55;;;;;;;;;;;;;;;;;;5034708;28;19909;-76
2022/10/01 10:46:21;;;;;;;;;;;;;;;;;;5035038;28;20024;-75
2022/10/01 10:48:48;;;;;;;;;;;;;;;;;;5034736;28;20018;-76
2022/10/01 10:51:14;;;;;;;;;;;;;;;;;;5034746;28;19970;-75
2022/10/01 10:53:42;;;;;;;;;;;;;;;;;;5035177;28;20345;-76
2022/10/01 10:56:08;;;;;;;;;;;;;;;;;;5034891;28;19905;-75
2022/10/01 10:58:38;;;;;;;;;;;;;;;;;;5034529;28;19995;-75
2022/10/01 11:01:12;;;;;;;;;;;;;;;;;;5112190;27;20265;-76
2022/10/01 11:03:38;;;;;;;;;;;;;;;;;;5111876;28;20010;-75
2022/10/01 11:06:04;;;;;;;;;;;;;;;;;;5111596;28;20010;-76
2022/10/01 11:08:30;;;;;;;;;;;;;;;;;;5111821;28;19950;-75
2022/10/01 11:10:56;;;;;;;;;;;;;;;;;;5111496;28;19908;-75
2022/10/01 11:13:22;;;;;;;;;;;;;;;;;;5111473;28;19911;-75
2022/10/01 11:15:48;;;;;;;;;;;;;;;;;;5111387;28;20380;-76
2022/10/01 11:18:14;;;;;;;;;;;;;;;;;;5111628;28;19908;-75
2022/10/01 11:20:40;;;;;;;;;;;;;;;;;;5111506;28;19937;-75
2022/10/01 11:23:06;;;;;;;;;;;;;;;;;;5111276;28;19915;-75
2022/10/01 11:25:33;;;;;;;;;;;;;;;;;;5111506;28;19908;-75
2022/10/01 11:27:59;;;;;;;;;;;;;;;;;;5111091;28;20014;-76
2022/10/01 11:30:25;;;;;;;;;;;;;;;;;;5112197;28;19945;-75
2022/10/01 11:32:51;;;;;;;;;;;;;;;;;;5111048;28;19908;-75
2022/10/01 11:35:18;;;;;;;;;;;;;;;;;;5111274;28;19915;-76
2022/10/01 11:37:44;;;;;;;;;;;;;;;;;;5110974;28;19912;-75
2022/10/01 11:40:10;;;;;;;;;;;;;;;;;;5111381;28;19912;-75
2022/10/01 11:42:36;;;;;;;;;;;;;;;;;;5110865;28;19915;-75
2022/10/01 11:45:03;;;;;;;;;;;;;;;;;;5109586;28;19908;-76
2022/10/01 11:47:29;;;;;;;;;;;;;;;;;;5110840;28;19908;-75
2022/10/01 11:49:55;;;;;;;;;;;;;;;;;;5110694;28;19915;-75
2022/10/01 11:52:22;;;;;;;;;;;;;;;;;;5110663;28;19908;-75
2022/10/01 11:54:48;;;;;;;;;;;;;;;;;;5110924;28;19915;-75
2022/10/01 11:59:59;;;;;;;;;;;;;;;;;;5120632;28;19926;-75
2022/10/01 12:02:27;;;;;;;;;;;;;;;;;;5130958;28;19908;-75
2022/10/01 12:04:52;;;;;;;;;;;;;;;;;;5130930;28;19908;-76
2022/10/01 12:07:19;;;;;;;;;;;;;;;;;;5130890;28;19915;-74
2022/10/01 12:09:46;;;;;;;;;;;;;;;;;;5131371;28;19915;-77
2022/10/01 12:12:12;;;;;;;;;;;;;;;;;;5100897;28;20390;-75
2022/10/01 12:14:38;;;;;;;;;;;;;;;;;;5117088;28;20367;-76
2022/10/01 12:17:03;;;;;;;;;;;;;;;;;;5117560;28;19961;-76
2022/10/01 12:19:29;;;;;;;;;;;;;;;;;;5116805;28;19911;-75
2022/10/01 12:21:55;;;;;;;;;;;;;;;;;;5117427;28;20006;-76
2022/10/01 12:24:22;;;;;;;;;;;;;;;;;;5116732;28;19908;-76
2022/10/01 12:26:48;;;;;;;;;;;;;;;;;;5116801;28;19915;-76
2022/10/01 12:29:14;;;;;;;;;;;;;;;;;;5117154;28;19912;-75
2022/10/01 12:31:40;;;;;;;;;;;;;;;;;;5116640;28;19934;-75
2022/10/01 12:34:06;;;;;;;;;;;;;;;;;;5116637;28;19917;-74
2022/10/01 12:36:35;;;;;;;;;;;;;;;;;;5116790;28;19907;-75
2022/10/01 12:39:01;;;;;;;;;;;;;;;;;;5097310;28;19918;-76
2022/10/01 12:41:27;;;;;;;;;;;;;;;;;;5115918;28;19908;-76
2022/10/01 12:43:53;;;;;;;;;;;;;;;;;;5116065;28;19995;-76
2022/10/01 12:46:19;;;;;;;;;;;;;;;;;;5116014;28;20004;-75
2022/10/01 12:48:46;;;;;;;;;;;;;;;;;;5115982;28;20317;-75
2022/10/01 12:51:12;;;;;;;;;;;;;;;;;;5115973;28;20010;-76
2022/10/01 12:53:39;;;;;;;;;;;;;;;;;;5115186;28;20363;-76
2022/10/01 12:56:06;;;;;;;;;;;;;;;;;;5115395;28;19908;-76
2022/10/01 12:58:32;;;;;;;;;;;;;;;;;;5116545;28;19908;-76
2022/10/01 13:00:58;;;;;;;;;;;;;;;;;;5115643;28;19965;-75
2022/10/01 13:03:24;;;;;;;;;;;;;;;;;;5116706;28;19991;-75
2022/10/01 13:05:50;;;;;;;;;;;;;;;;;;5116348;28;19939;-76
2022/10/01 13:08:16;;;;;;;;;;;;;;;;;;5116345;28;19915;-75
2022/10/01 13:10:42;;;;;;;;;;;;;;;;;;5115935;28;20291;-76
2022/10/01 13:13:09;;;;;;;;;;;;;;;;;;5115937;28;19908;-76
2022/10/01 13:15:35;;;;;;;;;;;;;;;;;;5115905;28;19908;-75
2022/10/01 13:18:01;;;;;;;;;;;;;;;;;;5115903;28;20052;-77
2022/10/01 13:20:27;;;;;;;;;;;;;;;;;;5116029;28;19969;-75
2022/10/01 13:22:54;;;;;;;;;;;;;;;;;;5114788;28;19923;-74
2022/10/01 13:25:20;;;;;;;;;;;;;;;;;;5116315;28;19907;-76
2022/10/01 13:27:46;;;;;;;;;;;;;;;;;;5115804;28;19908;-76
2022/10/01 13:30:12;;;;;;;;;;;;;;;;;;5116148;28;19932;-76
2022/10/01 13:32:38;;;;;;;;;;;;;;;;;;5115586;28;20322;-76
2022/10/01 13:35:03;;;;;;;;;;;;;;;;;;5115464;28;19915;-76
2022/10/01 13:37:29;;;;;;;;;;;;;;;;;;5115473;28;20354;-74
2022/10/01 13:39:55;;;;;;;;;;;;;;;;;;5115280;28;19911;-76
2022/10/01 13:42:21;;;;;;;;;;;;;;;;;;5115667;28;20253;-77
2022/10/01 13:44:47;;;;;;;;;;;;;;;;;;5097134;28;19908;-76
2022/10/01 13:47:15;;;;;;;;;;;;;;;;;;5115544;28;19919;-75
2022/10/01 13:49:41;;;;;;;;;;;;;;;;;;5096970;28;20010;-75
2022/10/01 13:52:07;;;;;;;;;;;;;;;;;;5115484;28;20415;-77
2022/10/01 13:54:33;;;;;;;;;;;;;;;;;;5115407;28;20028;-76
2022/10/01 13:56:58;;;;;;;;;;;;;;;;;;5115673;28;19908;-76
2022/10/01 13:59:24;;;;;;;;;;;;;;;;;;5114753;28;19920;-77
2022/10/01 14:01:50;;;;;;;;;;;;;;;;;;5115233;28;19915;-76
2022/10/01 14:04:16;;;;;;;;;;;;;;;;;;5114973;28;20367;-75
2022/10/01 14:06:42;;;;;;;;;;;;;;;;;;5115196;28;19908;-75
2022/10/01 14:09:08;;;;;;;;;;;;;;;;;;5114814;28;19908;-76
2022/10/01 14:17:03;;;;;;;;;;;;;;;;;;5115044;28;20004;-76
2022/10/01 14:19:30;;;;;;;;;;;;;;;;;;5114485;28;20371;-76
2022/10/01 14:21:55;;;;;;;;;;;;;;;;;;5114822;28;19951;-75
2022/10/01 14:24:21;;;;;;;;;;;;;;;;;;5114299;28;19992;-75
2022/10/01 14:26:47;;;;;;;;;;;;;;;;;;5113831;28;19911;-75
2022/10/01 14:29:13;;;;;;;;;;;;;;;;;;5114172;28;20015;-76
2022/10/01 14:31:39;;;;;;;;;;;;;;;;;;5114774;28;19907;-75
2022/10/01 14:34:05;;;;;;;;;;;;;;;;;;5113718;28;19940;-75
2022/10/01 14:36:33;;;;;;;;;;;;;;;;;;5113890;28;19907;-74
2022/10/01 14:38:59;;;;;;;;;;;;;;;;;;5095502;28;19919;-76
2022/10/01 14:41:25;;;;;;;;;;;;;;;;;;5113865;28;19908;-76
2022/10/01 14:43:51;;;;;;;;;;;;;;;;;;5113638;28;19950;-74
2022/10/01 14:46:17;;;;;;;;;;;;;;;;;;5113669;28;19947;-77
2022/10/01 14:48:43;;;;;;;;;;;;;;;;;;5114137;28;20407;-76
2022/10/01 14:51:09;;;;;;;;;;;;;;;;;;5113484;28;20283;-75
2022/10/01 14:53:35;;;;;;;;;;;;;;;;;;5112896;28;19943;-75
2022/10/01 14:56:01;;;;;;;;;;;;;;;;;;5112857;28;19932;-75
2022/10/01 14:58:30;;;;;;;;;;;;;;;;;;5113437;28;19907;-75
2022/10/01 15:00:56;;;;;;;;;;;;;;;;;;5113895;28;19920;-75
2022/10/01 15:03:21;;;;;;;;;;;;;;;;;;5114136;28;19908;-75
2022/10/01 15:05:50;;;;;;;;;;;;;;;;;;5114373;28;19991;-76
2022/10/01 15:08:16;;;;;;;;;;;;;;;;;;5114380;28;19907;-75
2022/10/01 15:10:42;;;;;;;;;;;;;;;;;;5114075;28;19908;-74
2022/10/01 15:13:08;;;;;;;;;;;;;;;;;;5114012;28;19911;-75
2022/10/01 15:15:34;;;;;;;;;;;;;;;;;;5114000;28;19908;-75
2022/10/01 15:18:00;;;;;;;;;;;;;;;;;;5113998;28;19912;-75
2022/10/01 15:20:26;;;;;;;;;;;;;;;;;;5114441;28;19911;-75
2022/10/01 15:22:53;;;;;;;;;;;;;;;;;;5095648;28;19908;-75
2022/10/01 15:25:19;;;;;;;;;;;;;;;;;;5114500;28;20275;-75
2022/10/01 15:27:45;;;;;;;;;;;;;;;;;;5113830;28;19933;-76
2022/10/01 15:30:11;;;;;;;;;;;;;;;;;;5114680;28;19908;-75
2022/10/01 15:32:37;;;;;;;;;;;;;;;;;;5113967;28;19908;-76
2022/10/01 15:35:03;;;;;;;;;;;;;;;;;;5114517;28;19930;-75
2022/10/01 15:37:30;;;;;;;;;;;;;;;;;;5113821;28;19915;-76
2022/10/01 15:39:56;;;;;;;;;;;;;;;;;;5113752;28;19965;-77
2022/10/01 15:42:22;;;;;;;;;;;;;;;;;;5113745;28;19912;-76
2022/10/01 15:44:48;;;;;;;;;;;;;;;;;;5114217;28;19957;-77
2022/10/01 15:47:14;;;;;;;;;;;;;;;;;;5116535;28;19919;-75
2022/10/01 15:49:40;;;;;;;;;;;;;;;;;;5117556;28;19908;-76
2022/10/01 15:54:50;;;;;;;;;;;;;;;;;;5117565;28;19915;-76
2022/10/01 15:57:16;;;;;;;;;;;;;;;;;;5117444;28;19911;-76
2022/10/01 15:59:42;;;;;;;;;;;;;;;;;;5117117;28;19942;-76
2022/10/01 16:02:08;;;;;;;;;;;;;;;;;;5117624;28;19993;-76
2022/10/01 16:04:34;;;;;;;;;;;;;;;;;;5117319;28;19912;-76
2022/10/01 16:07:00;;;;;;;;;;;;;;;;;;5117839;28;20415;-77
2022/10/01 16:09:29;;;;;;;;;;;;;;;;;;5117507;28;19939;-76
2022/10/01 16:11:55;;;;;;;;;;;;;;;;;;5117132;28;19996;-76
2022/10/01 16:14:21;;;;;;;;;;;;;;;;;;5117086;28;19908;-75
2022/10/01 16:16:49;;;;;;;;;;;;;;;;;;5117332;28;19950;-75
2022/10/01 16:19:15;;;;;;;;;;;;;;;;;;5116913;28;19912;-75
2022/10/01 16:21:41;;;;;;;;;;;;;;;;;;5116958;28;20374;-75
2022/10/01 16:24:06;;;;;;;;;;;;;;;;;;5116933;28;19908;-75
2022/10/01 16:26:33;;;;;;;;;;;;;;;;;;5117154;28;19911;-76
2022/10/01 16:28:58;;;;;;;;;;;;;;;;;;5116824;28;20372;-75
2022/10/01 16:31:24;;;;;;;;;;;;;;;;;;5117298;28;19908;-75
2022/10/01 16:33:50;;;;;;;;;;;;;;;;;;5116998;28;19908;-75
2022/10/01 16:36:18;;;;;;;;;;;;;;;;;;5116653;28;19931;-76
2022/10/01 16:38:44;;;;;;;;;;;;;;;;;;5116669;28;19915;-76
2022/10/01 16:41:10;;;;;;;;;;;;;;;;;;5116807;28;19911;-75
2022/10/01 16:43:37;;;;;;;;;;;;;;;;;;5116589;28;20279;-76
2022/10/01 16:46:03;;;;;;;;;;;;;;;;;;5116527;28;19908;-76
2022/10/01 16:48:29;;;;;;;;;;;;;;;;;;5116509;28;19908;-76
2022/10/01 16:50:58;;;;;;;;;;;;;;;;;;5116394;28;20370;-76